Terminal Aerodrome Forecast
Issued by NWS

Home | Current Version | Previous Version | Text Only | Print | Product List | Glossary On
Versions: 1 2 3 4 5 6 7 8 9 10 11 12 13 14
000
FTUS41 KBOX 260830 AAA
TAFBAF
TAF AMD
KBAF 260830Z 2609/2706 27010G19KT P6SM FEW040 BKN050
     FM261800 30012KT P6SM VCSH BKN060
     FM262300 30010KT P6SM SCT250=

USA.gov is the U.S. government's official web portal to all federal, state and local government web resources and services.